Marion, SC

12:43 AM EDT on October 21, 2017 (GMT -0400)
Marion County

Weather History for KMAO - December, 2011

Change the Weather History Date:

Sunday, December 11, 2011

  Actual Average (KFLO) Record (KFLO)
Temperature  
Mean Temperature 42 °F -  
Max Temperature 51 °F 58 °F 80 °F (2007)
Min Temperature 33 °F 38 °F 18 °F (1968)
Degree Days  
Heating Degree Days 23    
Moisture  
Dew Point 30 °F    
Average Humidity 66    
Maximum Humidity 93    
Minimum Humidity 41    
Precipitation  
Precipitation 0.00 in - - ()
Sea Level Pressure  
Sea Level Pressure 30.50 in    
Wind  
Wind Speed 8 mph (NNE)    
Max Wind Speed 16 mph    
Max Gust Speed 23 mph    
Visibility 10 miles    
Events      
Averages and records for this station are not official NWS values.
T = Trace of Precipitation, MM = Missing Value Source: NWS Daily Summary

Daily Weather History Graph

Daily Weather History Graph

Search for Another Location

Airport or City:

Trip Planner

Search our weather history database for the weather conditions in past years. The results will help you decide how hot, cold, wet, or windy it might be!

Date:

Astronomy

Dec. 11, 2011 Rise Set
Actual Time 7:12 AM EST 5:08 PM EST
Civil Twilight 6:45 AM EST 5:35 PM EST
Nautical Twilight 6:13 AM EST 6:07 PM EST
Astronomical Twilight 5:43 AM EST 6:37 PM EST
Moon 6:16 PM EST (12/11) 7:59 AM EST (12/11)
Length of Visible Light 10h 50m
Length of Day
9h 55m
Full, 99% of the Moon is Illuminated
Dec 11
Full
Dec 17
Last Quarter
Dec 24
New
Jan 1
First Quarter
Jan 9
Full

Hourly Weather History & Observations

Time (EST) Temp. Windchill Dew Point Humidity Pressure Visibility Wind Dir Wind Speed Gust Speed Precip Events Conditions
12:15 AM 33.8 °F 30.8 °F 32.0 °F 93% 30.44 in 10.0 mi North 3.5 mph - N/A   Clear
12:35 AM 33.8 °F 29.6 °F 32.0 °F 93% 30.44 in 10.0 mi North 4.6 mph - N/A   Clear
1:15 AM 35.6 °F 30.7 °F 32.0 °F 87% 30.44 in 10.0 mi North 5.8 mph - N/A   Clear
1:35 AM 35.6 °F 31.7 °F 32.0 °F 87% 30.44 in 10.0 mi North 4.6 mph - N/A   Clear
1:55 AM 35.6 °F 30.7 °F 32.0 °F 87% 30.44 in 10.0 mi North 5.8 mph - N/A   Clear
2:15 AM 35.6 °F 29.9 °F 32.0 °F 87% 30.44 in 10.0 mi North 6.9 mph - N/A   Clear
2:35 AM 35.6 °F 29.9 °F 32.0 °F 87% 30.44 in 10.0 mi North 6.9 mph - N/A   Clear
2:55 AM 35.6 °F 29.9 °F 32.0 °F 87% 30.44 in 10.0 mi North 6.9 mph - N/A   Clear
3:15 AM 35.6 °F 29.9 °F 32.0 °F 87% 30.44 in 10.0 mi NNE 6.9 mph - N/A   Clear
3:35 AM 35.6 °F 29.9 °F 32.0 °F 87% 30.45 in 10.0 mi NNE 6.9 mph - N/A   Clear
3:55 AM 35.6 °F 29.9 °F 30.2 °F 81% 30.45 in 10.0 mi NNE 6.9 mph - N/A   Clear
4:15 AM 35.6 °F 30.7 °F 30.2 °F 81% 30.46 in 10.0 mi North 5.8 mph - N/A   Clear
4:35 AM 35.6 °F 29.9 °F 30.2 °F 81% 30.46 in 10.0 mi North 6.9 mph - N/A   Clear
4:55 AM 33.8 °F 29.6 °F 30.2 °F 87% 30.46 in 10.0 mi NNE 4.6 mph - N/A   Clear
5:15 AM 33.8 °F 28.6 °F 30.2 °F 87% 30.46 in 10.0 mi NNE 5.8 mph - N/A   Clear
5:35 AM 33.8 °F 28.6 °F 30.2 °F 87% 30.46 in 10.0 mi North 5.8 mph - N/A   Clear
6:15 AM 33.8 °F 30.8 °F 30.2 °F 87% 30.48 in 10.0 mi NNE 3.5 mph - N/A   Clear
6:35 AM 33.8 °F 27.7 °F 32.0 °F 93% 30.49 in 10.0 mi North 6.9 mph - N/A   Clear
6:55 AM 33.8 °F 27.7 °F 30.2 °F 87% 30.50 in 10.0 mi North 6.9 mph - N/A   Clear
7:15 AM 33.8 °F 27.7 °F 32.0 °F 93% 30.50 in 10.0 mi North 6.9 mph - N/A   Clear
7:35 AM 33.8 °F 27.7 °F 32.0 °F 93% 30.52 in 10.0 mi NNE 6.9 mph - N/A   Clear
7:55 AM 33.8 °F 28.6 °F 32.0 °F 93% 30.53 in 10.0 mi NNE 5.8 mph - N/A   Clear
8:15 AM 35.6 °F 30.7 °F 32.0 °F 87% 30.53 in 10.0 mi NE 5.8 mph - N/A   Clear
8:35 AM 37.4 °F 30.3 °F 32.0 °F 81% 30.55 in 10.0 mi NNE 10.4 mph - N/A   Clear
9:15 AM 41.0 °F 34.3 °F 32.0 °F 70% 30.54 in 10.0 mi NNE 11.5 mph - N/A   Clear
9:35 AM 42.8 °F 35.8 °F 32.0 °F 66% 30.55 in 10.0 mi NNE 13.8 mph 19.6 mph N/A   Clear
9:55 AM 42.8 °F 35.8 °F 32.0 °F 66% 30.55 in 10.0 mi NNE 13.8 mph 20.7 mph N/A   Clear
10:15 AM 44.6 °F 38.4 °F 32.0 °F 61% 30.55 in 10.0 mi NE 12.7 mph 19.6 mph N/A   Clear
10:35 AM 44.6 °F 38.8 °F 32.0 °F 61% 30.56 in 10.0 mi NNE 11.5 mph - N/A   Clear
10:55 AM 46.4 °F 40.1 °F 30.2 °F 53% 30.56 in 10.0 mi NE 15.0 mph 20.7 mph N/A   Clear
11:15 AM 48.2 °F - 30.2 °F 50% 30.56 in 10.0 mi NE 15.0 mph 19.6 mph N/A   Clear
11:35 AM 48.2 °F - 30.2 °F 50% 30.55 in 10.0 mi NE 16.1 mph 19.6 mph N/A   Clear
11:55 AM 50.0 °F - 30.2 °F 47% 30.55 in 10.0 mi North 16.1 mph 19.6 mph N/A   Clear
12:15 PM 50.0 °F - 30.2 °F 47% 30.53 in 10.0 mi NNE 15.0 mph 18.4 mph N/A   Clear
12:35 PM 50.0 °F - 28.4 °F 43% 30.52 in 10.0 mi NNE 13.8 mph - N/A   Clear
12:55 PM 50.0 °F - 28.4 °F 43% 30.51 in 10.0 mi NNE 15.0 mph 23.0 mph N/A   Clear
1:15 PM 50.0 °F - 30.2 °F 47% 30.52 in 10.0 mi NNE 11.5 mph 18.4 mph N/A   Clear
1:35 PM 51.8 °F - 30.2 °F 44% 30.51 in 10.0 mi NNE 11.5 mph 17.3 mph N/A   Clear
1:55 PM 51.8 °F - 28.4 °F 41% 30.50 in 10.0 mi NNE 13.8 mph - N/A   Clear
2:15 PM 51.8 °F - 28.4 °F 41% 30.49 in 10.0 mi NE 12.7 mph 20.7 mph N/A   Clear
2:35 PM 50.0 °F - 28.4 °F 43% 30.49 in 10.0 mi NNE 12.7 mph - N/A   Clear
2:55 PM 50.0 °F - 30.2 °F 47% 30.49 in 10.0 mi NE 8.1 mph - N/A   Clear
3:15 PM 50.0 °F - 30.2 °F 47% 30.49 in 10.0 mi NNE 11.5 mph 17.3 mph N/A   Clear
3:35 PM 50.0 °F - 28.4 °F 43% 30.49 in 10.0 mi NNE 11.5 mph - N/A   Clear
3:55 PM 50.0 °F - 28.4 °F 43% 30.49 in 10.0 mi NNE 10.4 mph - N/A   Clear
4:15 PM 48.2 °F - 28.4 °F 46% 30.49 in 10.0 mi NNE 12.7 mph - N/A   Clear
4:35 PM 48.2 °F - 28.4 °F 46% 30.49 in 10.0 mi NNE 8.1 mph - N/A   Clear
5:15 PM 44.6 °F 41.4 °F 28.4 °F 53% 30.49 in 10.0 mi NE 5.8 mph - N/A   Clear
5:35 PM 44.6 °F 41.4 °F 28.4 °F 53% 30.50 in 10.0 mi NE 5.8 mph - N/A   Clear
5:55 PM 44.6 °F 40.2 °F 28.4 °F 53% 30.50 in 10.0 mi NNE 8.1 mph - N/A   Clear
6:15 PM 42.8 °F 40.1 °F 28.4 °F 57% 30.51 in 10.0 mi NNE 4.6 mph - N/A   Clear
6:35 PM 42.8 °F 38.0 °F 28.4 °F 57% 30.50 in 10.0 mi NNE 8.1 mph - N/A   Clear
6:55 PM 42.8 °F 38.6 °F 28.4 °F 57% 30.50 in 10.0 mi NNE 6.9 mph - N/A   Clear
7:15 PM 42.8 °F 38.0 °F 28.4 °F 57% 30.51 in 10.0 mi NNE 8.1 mph - N/A   Clear
7:35 PM 42.8 °F 38.0 °F 26.6 °F 53% 30.51 in 10.0 mi NNE 8.1 mph - N/A   Clear
7:55 PM 42.8 °F 37.5 °F 26.6 °F 53% 30.50 in 10.0 mi NNE 9.2 mph - N/A   Clear
8:15 PM 42.8 °F 38.6 °F 26.6 °F 53% 30.51 in 10.0 mi NE 6.9 mph - N/A   Clear
8:35 PM 42.8 °F 38.6 °F 26.6 °F 53% 30.52 in 10.0 mi NNE 6.9 mph - N/A   Clear
8:55 PM 42.8 °F 37.5 °F 26.6 °F 53% 30.51 in 10.0 mi NNE 9.2 mph - N/A   Clear
9:15 PM 42.8 °F 37.5 °F 28.4 °F 57% 30.51 in 10.0 mi NNE 9.2 mph - N/A   Clear
9:35 PM 42.8 °F 38.0 °F 28.4 °F 57% 30.51 in 10.0 mi NE 8.1 mph - N/A   Clear
9:55 PM 42.8 °F 37.5 °F 28.4 °F 57% 30.51 in 10.0 mi NE 9.2 mph - N/A   Clear
10:15 PM 42.8 °F 38.0 °F 28.4 °F 57% 30.51 in 10.0 mi NNE 8.1 mph - N/A   Clear
10:35 PM 42.8 °F 38.0 °F 28.4 °F 57% 30.51 in 10.0 mi NNE 8.1 mph - N/A   Clear
10:55 PM 42.8 °F 36.6 °F 30.2 °F 61% 30.50 in 10.0 mi NNE 11.5 mph 16.1 mph N/A   Clear
11:15 PM 42.8 °F 37.0 °F 30.2 °F 61% 30.50 in 10.0 mi NNE 10.4 mph - N/A   Clear
11:35 PM 42.8 °F 37.0 °F 30.2 °F 61% 30.49 in 10.0 mi NNE 10.4 mph - N/A   Clear
11:55 PM 42.8 °F 38.0 °F 32.0 °F 66% 30.49 in 10.0 mi NNE 8.1 mph - N/A   Clear